Star Princess — ZCDD6 — position and weather

sailwx.info

Track history (hours):
 
Tides and Currents Weather Stations Pressure Air Temp Water Temp Dewpoint Dewpoint Depression Visibility Wind Speed Wind Dir Waves Ship Positions

Star Princess

Operator: Princess Cruises

Last reported at 2014-Jul-24 02:32 UTC. Time now 2014-Jul-24 14:41 UTC.
Position N 58°09' W 135°17'.

Length 289.6 m; beam 36 m; draft 8.4 m.

Type: Ship. MMSI: 310361000.

Date/timePositionNaut miles runAvg speedWind from/ knotsBaromVisibWave heightAir tempDewpointWater temp
2014-Jul-24 02:32N 58°09' W 135°17'3 0.2
2014-Jul-23 14:07N 58°09' W 135°23'69 2.0
2014-Jul-22 03:00N 57°30' W 133°36'43 3.5 170 / 141013.410.8 17.513.4 8.0
2014-Jul-21 15:00N 56°54' W 134°18'182 6.0 060 / 201011.210.8 0.512.010.210.0
2014-Jul-20 08:25N 54°26' W 131°11'1619.0
2014-Jul-20 07:33N 54°10' W 131°01'10222.4
2014-Jul-20 03:00N 52°30' W 130°30'47819.9 330 / 131013.910.8 0.514.612.815.0
2014-Jul-19 03:00N 44°54' W 126°54'23919.9 330 / 201022.110.8 0.516.514.119.0
2014-Jul-18 15:00N 41°06' W 125°18'14118.4 360 / 331017.110.8 3.514.011.912.0
2014-Jul-18 07:18N 38°51' W 124°21'2320.0
2014-Jul-18 06:09N 38°33' W 124°04'1119.4
2014-Jul-18 05:33N 38°24' W 123°54'1616.1
2014-Jul-18 04:33N 38°13' W 123°40'1515.2
2014-Jul-18 03:33N 38°09' W 123°21'1616.0
2014-Jul-18 02:33N 37°58' W 123°07'1616.3
2014-Jul-18 01:34N 37°50' W 122°49'1312.8
2014-Jul-18 00:33N 37°48' W 122°33'7 6.6
2014-Jul-17 23:31N 37°48' W 122°24'0 0.0
2014-Jul-17 22:31N 37°48' W 122°24'0 0.0
2014-Jul-17 21:33N 37°48' W 122°24'0 0.0
2014-Jul-17 20:33N 37°48' W 122°24'0 0.0
2014-Jul-17 19:33N 37°48' W 122°24'0 0.0
2014-Jul-17 18:32N 37°48' W 122°24'0 0.0
2014-Jul-17 17:32N 37°48' W 122°24'0 0.0
2014-Jul-17 16:31N 37°48' W 122°24'0 0.0
2014-Jul-17 15:31N 37°48' W 122°24'0 0.0
2014-Jul-17 14:33N 37°48' W 122°24'0 0.0
2014-Jul-17 13:33N 37°48' W 122°24'1 1.4
2014-Jul-17 12:33N 37°49' W 122°26'1312.7
2014-Jul-17 11:33N 37°46' W 122°42'1111.4
2014-Jul-17 10:33N 37°50' W 122°55'1313.4
2014-Jul-17 09:33N 37°57' W 123°10'1717.4
2014-Jul-17 08:33N 38°09' W 123°26'1919.2
2014-Jul-17 07:33N 38°17' W 123°48'2019.3
2014-Jul-17 06:32N 38°32' W 124°04'2120.6
2014-Jul-17 05:30N 38°50' W 124°19'5521.9
2014-Jul-17 03:00N 39°42' W 124°42'30520.8 030 / 51016.610.8 13.512.715.0
2014-Jul-16 12:18N 44°46' W 125°12'1520.8
2014-Jul-16 11:33N 45°02' W 125°13'2120.9
2014-Jul-16 10:33N 45°22' W 125°14'2120.7
2014-Jul-16 09:34N 45°43' W 125°14'2121.0
2014-Jul-16 08:33N 46°04' W 125°14'2120.5
2014-Jul-16 07:33N 46°25' W 125°17'2120.9
2014-Jul-16 06:33N 46°45' W 125°17'2120.7
2014-Jul-16 05:34N 47°06' W 125°18'2421.2
2014-Jul-16 04:25N 47°30' W 125°19'1821.5
2014-Jul-16 03:34N 47°49' W 125°20'2121.4
2014-Jul-16 02:34N 48°10' W 125°13'2120.6
2014-Jul-16 01:33N 48°29' W 125°03'1818.5
2014-Jul-16 00:34N 48°28' W 124°35'1918.8
2014-Jul-15 23:33N 48°21' W 124°09'1918.5
2014-Jul-15 22:33N 48°16' W 123°42'1313.2
2014-Jul-15 21:33N 48°23' W 123°25'2 2.0
2014-Jul-15 20:28N 48°25' W 123°24'0 0.0
2014-Jul-15 19:33N 48°25' W 123°24'0 0.0
2014-Jul-15 18:30N 48°25' W 123°24'0 0.0
2014-Jul-15 17:33N 48°25' W 123°24'0 0.0
2014-Jul-15 16:32N 48°25' W 123°24'0 0.0
2014-Jul-15 15:32N 48°25' W 123°24'0 0.0
2014-Jul-15 14:31N 48°25' W 123°24'0 0.0
2014-Jul-15 13:28N 48°25' W 123°24'4 4.8
2014-Jul-15 12:33N 48°21' W 123°24'1212.4
2014-Jul-15 11:33N 48°13' W 123°39'1413.9
2014-Jul-15 10:33N 48°15' W 124°00'1515.3
2014-Jul-15 09:33N 48°21' W 124°21'1515.4
2014-Jul-15 08:33N 48°28' W 124°42'1515.2
2014-Jul-15 07:33N 48°28' W 125°05'1514.8
2014-Jul-15 06:33N 48°34' W 125°25'1515.2
2014-Jul-15 05:33N 48°41' W 125°46'1515.0
2014-Jul-15 04:33N 48°50' W 126°04'1515.1
2014-Jul-15 03:33N 48°59' W 126°22'1425.6
2014-Jul-15 03:00N 49°06' W 126°42'3 6.1 310 / 231020.5 0.5 1.016.013.514.5
2014-Jul-15 02:33N 49°09' W 126°41'1515.4
2014-Jul-15 01:33N 49°18' W 126°59'1515.4
2014-Jul-15 00:33N 49°28' W 127°18'1615.5
2014-Jul-14 23:33N 49°38' W 127°36'1717.4
2014-Jul-14 22:33N 49°49' W 127°57'13517.9
2014-Jul-14 15:00N 51°42' W 129°54'4116.7 270 / 181022.210.8 0.514.513.516.0
2014-Jul-14 12:33N 52°19' W 130°21'11417.7
2014-Jul-14 06:07N 54°10' W 131°02'1118.6
2014-Jul-14 05:33N 54°20' W 131°06'  
Track history (hours):
 
Tides and Currents Weather Stations Pressure Air Temp Water Temp Dewpoint Dewpoint Depression Visibility Wind Speed Wind Dir Waves Ship Positions

Star Princess

Operator: Princess Cruises

Last reported at 2014-Jul-24 02:32 UTC. Time now 2014-Jul-24 14:41 UTC.
Position N 58°09' W 135°17'.

Length 289.6 m; beam 36 m; draft 8.4 m.

Type: Ship. MMSI: 310361000.

Date/timePositionNaut miles runAvg speedWind from/ knotsBaromVisibWave heightAir tempDewpointWater temp
2014-Jul-24 02:32N 58°09' W 135°17'3 0.2
2014-Jul-23 14:07N 58°09' W 135°23'69 2.0
2014-Jul-22 03:00N 57°30' W 133°36'43 3.5 170 / 141013.410.8 17.513.4 8.0
2014-Jul-21 15:00N 56°54' W 134°18'182 6.0 060 / 201011.210.8 0.512.010.210.0
2014-Jul-20 08:25N 54°26' W 131°11'1619.0
2014-Jul-20 07:33N 54°10' W 131°01'10222.4
2014-Jul-20 03:00N 52°30' W 130°30'47819.9 330 / 131013.910.8 0.514.612.815.0
2014-Jul-19 03:00N 44°54' W 126°54'23919.9 330 / 201022.110.8 0.516.514.119.0
2014-Jul-18 15:00N 41°06' W 125°18'14118.4 360 / 331017.110.8 3.514.011.912.0
2014-Jul-18 07:18N 38°51' W 124°21'2320.0
2014-Jul-18 06:09N 38°33' W 124°04'1119.4
2014-Jul-18 05:33N 38°24' W 123°54'1616.1
2014-Jul-18 04:33N 38°13' W 123°40'1515.2
2014-Jul-18 03:33N 38°09' W 123°21'1616.0
2014-Jul-18 02:33N 37°58' W 123°07'1616.3
2014-Jul-18 01:34N 37°50' W 122°49'1312.8
2014-Jul-18 00:33N 37°48' W 122°33'7 6.6
2014-Jul-17 23:31N 37°48' W 122°24'0 0.0
2014-Jul-17 22:31N 37°48' W 122°24'0 0.0
2014-Jul-17 21:33N 37°48' W 122°24'0 0.0
2014-Jul-17 20:33N 37°48' W 122°24'0 0.0
2014-Jul-17 19:33N 37°48' W 122°24'0 0.0
2014-Jul-17 18:32N 37°48' W 122°24'0 0.0
2014-Jul-17 17:32N 37°48' W 122°24'0 0.0
2014-Jul-17 16:31N 37°48' W 122°24'0 0.0
2014-Jul-17 15:31N 37°48' W 122°24'0 0.0
2014-Jul-17 14:33N 37°48' W 122°24'0 0.0
2014-Jul-17 13:33N 37°48' W 122°24'1 1.4
2014-Jul-17 12:33N 37°49' W 122°26'1312.7
2014-Jul-17 11:33N 37°46' W 122°42'1111.4
2014-Jul-17 10:33N 37°50' W 122°55'1313.4
2014-Jul-17 09:33N 37°57' W 123°10'1717.4
2014-Jul-17 08:33N 38°09' W 123°26'1919.2
2014-Jul-17 07:33N 38°17' W 123°48'2019.3
2014-Jul-17 06:32N 38°32' W 124°04'2120.6
2014-Jul-17 05:30N 38°50' W 124°19'5521.9
2014-Jul-17 03:00N 39°42' W 124°42'30520.8 030 / 51016.610.8 13.512.715.0
2014-Jul-16 12:18N 44°46' W 125°12'1520.8
2014-Jul-16 11:33N 45°02' W 125°13'2120.9
2014-Jul-16 10:33N 45°22' W 125°14'2120.7
2014-Jul-16 09:34N 45°43' W 125°14'2121.0
2014-Jul-16 08:33N 46°04' W 125°14'2120.5
2014-Jul-16 07:33N 46°25' W 125°17'2120.9
2014-Jul-16 06:33N 46°45' W 125°17'2120.7
2014-Jul-16 05:34N 47°06' W 125°18'2421.2
2014-Jul-16 04:25N 47°30' W 125°19'1821.5
2014-Jul-16 03:34N 47°49' W 125°20'2121.4
2014-Jul-16 02:34N 48°10' W 125°13'2120.6
2014-Jul-16 01:33N 48°29' W 125°03'1818.5
2014-Jul-16 00:34N 48°28' W 124°35'1918.8
2014-Jul-15 23:33N 48°21' W 124°09'1918.5
2014-Jul-15 22:33N 48°16' W 123°42'1313.2
2014-Jul-15 21:33N 48°23' W 123°25'2 2.0
2014-Jul-15 20:28N 48°25' W 123°24'0 0.0
2014-Jul-15 19:33N 48°25' W 123°24'0 0.0
2014-Jul-15 18:30N 48°25' W 123°24'0 0.0
2014-Jul-15 17:33N 48°25' W 123°24'0 0.0
2014-Jul-15 16:32N 48°25' W 123°24'0 0.0
2014-Jul-15 15:32N 48°25' W 123°24'0 0.0
2014-Jul-15 14:31N 48°25' W 123°24'0 0.0
2014-Jul-15 13:28N 48°25' W 123°24'4 4.8
2014-Jul-15 12:33N 48°21' W 123°24'1212.4
2014-Jul-15 11:33N 48°13' W 123°39'1413.9
2014-Jul-15 10:33N 48°15' W 124°00'1515.3
2014-Jul-15 09:33N 48°21' W 124°21'1515.4
2014-Jul-15 08:33N 48°28' W 124°42'1515.2
2014-Jul-15 07:33N 48°28' W 125°05'1514.8
2014-Jul-15 06:33N 48°34' W 125°25'1515.2
2014-Jul-15 05:33N 48°41' W 125°46'1515.0
2014-Jul-15 04:33N 48°50' W 126°04'1515.1
2014-Jul-15 03:33N 48°59' W 126°22'1425.6
2014-Jul-15 03:00N 49°06' W 126°42'3 6.1 310 / 231020.5 0.5 1.016.013.514.5
2014-Jul-15 02:33N 49°09' W 126°41'1515.4
2014-Jul-15 01:33N 49°18' W 126°59'1515.4
2014-Jul-15 00:33N 49°28' W 127°18'1615.5
2014-Jul-14 23:33N 49°38' W 127°36'1717.4
2014-Jul-14 22:33N 49°49' W 127°57'13517.9
2014-Jul-14 15:00N 51°42' W 129°54'4116.7 270 / 181022.210.8 0.514.513.516.0
2014-Jul-14 12:33N 52°19' W 130°21'11417.7
2014-Jul-14 06:07N 54°10' W 131°02'1118.6
2014-Jul-14 05:33N 54°20' W 131°06'  

Dump ship's entire track history